Time;durP1;ratioP1;P1;durP2;ratioP2;P2;SDS_P1;SDS_P2;PMS_P1;PMS_P2;Temp;Humidity;BMP_temperature;BMP_pressure;BME280_temperature;BME280_humidity;BME280_pressure;Samples;Min_cycle;Max_cycle;Signal;HPM_P1;HPM_P2
2022/10/07 00:00:38;;;;;;;25.10;16.10;;;;;;;5.40;89.45;101999.44;88552;1306;22066;-75
2022/10/07 00:03:03;;;;;;;27.10;18.90;;;;;;;5.39;89.43;102000.45;88548;1306;22061;-75
2022/10/07 00:05:09;;;;;;;33.10;21.40;;;;;;;5.38;89.31;102002.17;88765;1294;22047;-75
2022/10/07 00:07:15;;;;;;;42.30;24.70;;;;;;;5.36;89.26;102005.63;88787;1296;22043;-75
2022/10/07 00:09:20;;;;;;;37.30;24.10;;;;;;;5.36;89.51;102004.41;88576;1306;22061;-75
2022/10/07 00:11:27;;;;;;;37.80;24.30;;;;;;;5.34;89.55;102001.63;88818;1292;22033;-75
2022/10/07 00:13:33;;;;;;;37.90;25.00;;;;;;;5.34;89.87;102000.75;88573;1306;22052;-75
2022/10/07 00:15:38;;;;;;;34.00;22.20;;;;;;;5.33;89.94;102004.90;88818;1296;22048;-76
2022/10/07 00:17:44;;;;;;;33.40;23.20;;;;;;;5.32;89.75;102002.80;88579;1294;22064;-75
2022/10/07 00:19:49;;;;;;;30.60;21.30;;;;;;;5.30;89.64;102002.79;88814;1296;22568;-75
2022/10/07 00:21:55;;;;;;;31.70;21.10;;;;;;;5.28;90.05;102003.98;88831;1286;22435;-75
2022/10/07 00:24:01;;;;;;;27.20;19.70;;;;;;;5.28;90.13;101999.84;88849;1296;22022;-75
2022/10/07 00:26:08;;;;;;;27.30;19.90;;;;;;;5.27;90.05;102000.67;88823;1296;22092;-76
2022/10/07 00:28:13;;;;;;;29.40;19.70;;;;;;;5.25;90.15;101999.45;88578;1298;22740;-74
2022/10/07 00:30:19;;;;;;;28.50;18.70;;;;;;;5.24;90.15;101999.97;88803;1296;22025;-74
2022/10/07 00:32:25;;;;;;;26.80;18.40;;;;;;;5.23;90.07;101999.09;88811;1286;22030;-75
2022/10/07 00:34:31;;;;;;;26.70;17.90;;;;;;;5.22;90.19;102000.98;88566;1298;22122;-75
2022/10/07 00:36:37;;;;;;;25.70;18.30;;;;;;;5.21;90.19;102000.64;88541;1288;22078;-75
2022/10/07 00:38:43;;;;;;;22.70;17.70;;;;;;;5.21;90.52;101995.79;88821;1286;22061;-75
2022/10/07 00:40:48;;;;;;;26.40;18.30;;;;;;;5.19;90.10;101991.78;88810;1287;22008;-75
2022/10/07 00:42:54;;;;;;;24.00;16.70;;;;;;;5.16;90.26;101991.23;88725;1299;22189;-75
2022/10/07 00:44:59;;;;;;;21.30;16.00;;;;;;;5.16;90.41;101994.17;88042;1296;1002432;-75
2022/10/07 00:47:10;;;;;;;28.90;16.20;;;;;;;5.15;90.10;101994.84;88576;1306;22823;-75
2022/10/07 00:49:14;;;;;;;;;;;;;;;5.12;89.96;101994.66;88074;1294;1002043;-74
2022/10/07 00:51:20;;;;;;;29.60;15.70;;;;;;;5.06;90.22;101999.25;88810;1296;22186;-74
2022/10/07 00:53:26;;;;;;;22.90;15.50;;;;;;;5.06;90.45;101999.42;88830;1296;22574;-74
2022/10/07 00:55:35;;;;;;;20.00;14.30;;;;;;;5.06;90.67;101996.15;88839;1294;22657;-74
2022/10/07 00:57:40;;;;;;;23.00;14.80;;;;;;;5.06;90.59;101997.35;88575;1305;22077;-75
2022/10/07 00:59:45;;;;;;;22.70;14.60;;;;;;;5.04;90.59;101996.98;88824;1296;22338;-75
2022/10/07 01:01:51;;;;;;;18.90;13.90;;;;;;;5.04;90.68;101998.02;88815;1296;22026;-75
2022/10/07 01:03:56;;;;;;;24.70;13.80;;;;;;;5.03;90.61;101996.12;88835;1296;22054;-75
2022/10/07 01:06:02;;;;;;;30.60;18.50;;;;;;;5.04;90.95;101997.34;88853;1287;22033;-75
2022/10/07 01:08:08;;;;;;;22.40;16.70;;;;;;;5.06;90.89;101998.21;88829;1284;22045;-75
2022/10/07 01:10:17;;;;;;;21.50;15.40;;;;;;;5.07;91.16;101997.17;88558;1306;22806;-75
2022/10/07 01:12:28;;;;;;;30.10;15.80;;;;;;;5.09;91.13;101993.06;88825;1286;22114;-74
2022/10/07 01:14:45;;;;;;;20.20;14.90;;;;;;;5.08;91.03;101991.85;88821;1296;22025;-76
2022/10/07 01:16:55;;;;;;;19.80;15.60;;;;;;;5.09;91.20;101991.67;88836;1296;22578;-76
2022/10/07 01:19:07;;;;;;;25.40;16.70;;;;;;;5.09;91.35;101987.36;88573;1290;22086;-75
2022/10/07 01:21:17;;;;;;;26.10;15.80;;;;;;;5.09;91.17;101990.82;88810;1296;22015;-76
2022/10/07 01:24:00;;;;;;;24.70;16.20;;;;;;;5.10;91.39;101987.71;88808;1285;22026;-75
2022/10/07 01:26:54;;;;;;;20.30;15.20;;;;;;;5.08;91.36;101989.25;88676;1299;22170;-75
2022/10/07 01:29:01;;;;;;;18.90;14.00;;;;;;;5.06;91.55;101989.05;88054;1296;1002336;-75
2022/10/07 01:31:08;;;;;;;23.40;14.50;;;;;;;5.05;91.37;101988.17;88798;1296;22039;-75
2022/10/07 01:33:16;;;;;;;24.00;14.70;;;;;;;5.04;91.33;101986.95;88537;1298;22047;-75
2022/10/07 01:35:24;;;;;;;23.90;14.70;;;;;;;5.02;91.18;101991.77;88541;1306;22818;-75
2022/10/07 01:37:34;;;;;;;31.40;17.40;;;;;;;5.01;91.36;101991.77;88816;1294;22041;-75
2022/10/07 01:39:41;;;;;;;33.30;18.00;;;;;;;4.98;91.22;101990.52;88790;1284;22043;-75
2022/10/07 01:41:47;;;;;;;45.50;21.60;;;;;;;4.97;91.40;101994.67;88571;1305;22676;-75
2022/10/07 01:43:54;;;;;;;47.00;22.80;;;;;;;4.95;91.24;101991.01;88833;1294;22068;-75
2022/10/07 01:45:59;;;;;;;51.90;23.90;;;;;;;4.92;91.25;101993.40;88798;1284;22038;-75
2022/10/07 01:48:05;;;;;;;56.60;24.40;;;;;;;4.90;91.41;101988.88;88594;1298;22098;-75
2022/10/07 01:50:13;;;;;;;53.80;23.70;;;;;;;4.89;91.23;101991.64;88588;1288;22037;-75
2022/10/07 01:52:39;;;;;;;55.60;24.00;;;;;;;4.87;91.23;101990.07;88571;1298;22086;-75
2022/10/07 01:55:17;;;;;;;50.80;24.30;;;;;;;4.84;91.36;101991.77;88584;1305;22063;-75
2022/10/07 01:57:29;;;;;;;49.40;23.00;;;;;;;4.83;91.54;101990.02;88551;1298;22063;-75
2022/10/07 02:00:05;;;;;;;56.70;25.90;;;;;;;4.82;91.60;101990.34;88842;1293;22115;-74
2022/10/07 02:02:15;;;;;;;61.50;26.90;;;;;;;4.81;91.75;101991.71;88822;1299;22086;-74
2022/10/07 02:04:35;;;;;;;54.30;24.80;;;;;;;4.80;91.80;101988.94;88789;1298;22080;-74
2022/10/07 02:06:46;;;;;;;61.60;26.00;;;;;;;4.79;91.71;101987.70;88792;1289;22019;-74
2022/10/07 02:08:52;;;;;;;61.50;27.70;;;;;;;4.77;91.84;101991.32;88704;1287;22039;-74
2022/10/07 02:11:11;;;;;;;55.50;26.60;;;;;;;4.76;91.96;101993.39;88783;1296;22615;-74
2022/10/07 02:14:01;;;;;;;58.70;27.50;;;;;;;4.74;91.65;101991.98;88584;1306;22122;-74
2022/10/07 02:16:08;;;;;;;;;;;;;;;4.72;91.93;101990.38;88486;1306;23038;-73
2022/10/07 02:18:15;;;;;;;55.60;27.30;;;;;;;4.67;91.97;101991.54;88505;1291;22073;-74
2022/10/07 02:20:22;;;;;;;67.70;29.30;;;;;;;4.67;91.71;101992.59;88703;1299;22036;-74
2022/10/07 02:22:28;;;;;;;62.30;29.60;;;;;;;4.65;91.85;101992.73;88735;1297;22014;-75
2022/10/07 02:24:35;;;;;;;47.00;24.70;;;;;;;4.63;91.81;101993.75;88717;1295;22060;-75
2022/10/07 02:26:41;;;;;;;48.40;24.30;;;;;;;4.62;91.90;101989.41;88739;1299;22020;-75
2022/10/07 02:28:46;;;;;;;45.20;22.90;;;;;;;4.60;91.78;101990.25;88581;1302;22630;-75
2022/10/07 02:30:56;;;;;;;42.30;21.60;;;;;;;4.60;91.92;101992.50;88495;1306;22050;-75
2022/10/07 02:33:04;;;;;;;39.00;21.60;;;;;;;4.58;92.16;101989.89;88739;1299;22024;-75
2022/10/07 02:35:15;;;;;;;44.90;22.00;;;;;;;4.57;92.05;101988.32;88727;1299;22125;-75
2022/10/07 02:37:23;;;;;;;40.30;21.10;;;;;;;4.57;92.04;101987.62;88722;1287;22502;-75
2022/10/07 02:39:29;;;;;;;41.80;23.90;;;;;;;4.56;92.27;101986.40;88703;1279;22034;-75
2022/10/07 02:41:39;;;;;;;32.00;22.30;;;;;;;4.56;92.14;101988.64;88729;1298;22149;-75
2022/10/07 02:43:47;;;;;;;39.00;23.70;;;;;;;4.56;92.41;101991.06;88623;1283;22715;-75
2022/10/07 02:45:59;;;;;;;39.40;23.50;;;;;;;4.55;92.42;101991.23;88487;1299;22104;-75
2022/10/07 02:48:08;;;;;;;33.30;21.40;;;;;;;4.54;92.33;101988.98;88356;1309;22105;-75
2022/10/07 02:50:16;;;;;;;28.60;19.70;;;;;;;4.54;92.09;101993.11;88487;1306;22074;-75
2022/10/07 02:52:21;;;;;;;29.00;20.00;;;;;;;4.52;92.24;101990.84;88738;1287;22040;-75
2022/10/07 02:54:30;;;;;;;30.70;19.90;;;;;;;4.51;92.27;101990.14;88697;1299;22731;-75
2022/10/07 02:56:36;;;;;;;28.40;18.50;;;;;;;4.50;92.32;101985.45;88715;1290;22016;-75
2022/10/07 02:58:44;;;;;;;27.60;17.90;;;;;;;4.48;92.29;101988.38;88606;1284;22201;-74
2022/10/07 03:00:51;;;;;;;29.30;17.70;;;;;;;4.47;92.38;101983.52;88719;1287;22151;-74
2022/10/07 03:03:00;;;;;;;28.80;16.80;;;;;;;4.46;92.34;101981.77;88632;1299;22107;-74
2022/10/07 03:05:07;;;;;;;25.00;15.40;;;;;;;4.44;92.47;101982.44;88492;1298;22045;-74
2022/10/07 03:07:12;;;;;;;27.10;14.00;;;;;;;4.43;92.39;101983.46;88701;1299;22096;-74
2022/10/07 03:09:18;;;;;;;21.30;13.50;;;;;;;4.41;92.19;101983.27;88741;1298;22003;-74
2022/10/07 03:11:23;;;;;;;19.50;13.00;;;;;;;4.39;92.43;101986.70;88696;1299;22768;-74
2022/10/07 03:13:30;;;;;;;19.40;12.90;;;;;;;4.37;92.08;101982.70;88713;1293;22073;-74
2022/10/07 03:15:36;;;;;;;17.90;12.60;;;;;;;4.34;92.13;101982.14;88501;1306;22078;-74
2022/10/07 03:17:41;;;;;;;16.00;11.10;;;;;;;4.33;92.28;101981.95;88719;1299;22238;-74
2022/10/07 03:19:48;;;;;;;13.80;11.30;;;;;;;4.32;92.26;101982.80;88499;1306;22075;-74
2022/10/07 03:21:53;;;;;;;17.20;11.90;;;;;;;4.31;92.36;101982.10;88519;1306;22041;-74
2022/10/07 03:24:03;;;;;;;14.40;10.90;;;;;;;4.30;92.54;101982.26;88500;1306;22072;-74
2022/10/07 03:26:09;;;;;;;17.90;10.70;;;;;;;4.29;92.25;101983.12;88660;1299;22622;-74
2022/10/07 03:28:15;;;;;;;15.50;10.60;;;;;;;4.28;92.13;101986.02;88525;1297;22058;-74
2022/10/07 03:30:21;;;;;;;15.50;12.70;;;;;;;4.26;92.59;101985.14;88727;1275;22021;-74
2022/10/07 03:32:27;;;;;;;17.20;12.60;;;;;;;4.25;92.32;101982.88;88728;1299;22018;-74
2022/10/07 03:34:32;;;;;;;23.70;15.40;;;;;;;4.23;92.29;101984.41;88654;1299;22070;-76
2022/10/07 03:36:38;;;;;;;16.40;14.00;;;;;;;4.21;92.34;101983.86;88724;1299;22014;-74
2022/10/07 03:38:43;;;;;;;19.00;13.50;;;;;;;4.18;92.05;101979.33;88690;1299;22046;-74
2022/10/07 03:40:49;;;;;;;16.30;13.50;;;;;;;4.15;91.97;101977.38;88715;1299;22037;-74
2022/10/07 03:42:54;;;;;;;18.30;12.60;;;;;;;4.11;91.98;101976.46;88490;1299;22141;-74
2022/10/07 03:45:00;;;;;;;17.40;13.80;;;;;;;4.09;92.26;101974.37;88729;1299;22619;-74
2022/10/07 03:47:07;;;;;;;21.20;14.00;;;;;;;4.08;92.37;101972.11;88696;1299;22080;-74
2022/10/07 03:49:12;;;;;;;22.10;14.30;;;;;;;4.07;92.28;101972.27;88490;1282;22074;-74
2022/10/07 03:51:18;;;;;;;18.50;12.90;;;;;;;4.07;92.42;101975.36;88722;1292;22622;-74
2022/10/07 03:53:23;;;;;;;21.80;12.40;;;;;;;4.05;92.37;101971.91;88723;1288;22054;-74
2022/10/07 03:55:29;;;;;;;14.00;11.80;;;;;;;4.04;92.42;101968.42;88679;1299;22044;-74
2022/10/07 03:57:51;;;;;;;14.50;11.90;;;;;;;4.02;92.37;101966.83;88742;1290;22103;-74
2022/10/07 03:59:57;;;;;;;17.60;11.30;;;;;;;4.02;92.52;101967.52;88706;1297;22040;-74
2022/10/07 04:02:03;;;;;;;17.70;11.40;;;;;;;4.04;92.67;101966.52;88718;1299;22737;-74
2022/10/07 04:04:08;;;;;;;15.90;10.90;;;;;;;4.03;92.63;101967.04;88737;1299;22089;-74
2022/10/07 04:06:14;;;;;;;12.20;9.70;;;;;;;4.02;92.79;101965.98;88730;1287;22030;-74
2022/10/07 04:08:19;;;;;;;12.70;9.10;;;;;;;4.02;92.75;101964.42;88712;1280;22034;-75
2022/10/07 04:10:25;;;;;;;13.00;9.90;;;;;;;4.01;92.41;101965.27;88497;1298;22079;-75
2022/10/07 04:12:32;;;;;;;13.00;9.70;;;;;;;4.02;92.92;101962.69;88751;1270;22055;-74
2022/10/07 04:14:38;;;;;;;12.10;9.70;;;;;;;4.01;92.92;101957.85;88502;1306;22075;-74
2022/10/07 04:16:44;;;;;;;13.30;9.30;;;;;;;4.01;92.74;101960.09;88716;1299;22045;-72
2022/10/07 04:18:49;;;;;;;12.30;9.10;;;;;;;4.01;93.00;101956.46;88707;1292;22132;-72
2022/10/07 04:20:59;;;;;;;14.20;8.60;;;;;;;4.00;92.94;101959.39;88617;1289;22645;-72
2022/10/07 04:23:05;;;;;;;11.30;10.00;;;;;;;3.99;92.59;101957.47;88711;1295;22099;-72
2022/10/07 04:27:36;;;;;;;11.80;8.80;;;;;;;3.97;92.60;101954.33;88502;1306;22079;-74
2022/10/07 04:29:42;;;;;;;15.60;10.10;;;;;;;3.96;92.89;101956.05;88476;1296;22116;-74
2022/10/07 04:31:47;;;;;;;15.20;9.50;;;;;;;3.94;92.75;101954.11;88726;1299;22701;-74
2022/10/07 04:33:53;;;;;;;12.30;8.30;;;;;;;3.93;93.11;101952.03;88626;1302;22066;-74
2022/10/07 04:36:03;;;;;;;12.80;8.60;;;;;;;3.92;92.87;101951.67;88696;1292;22043;-74
2022/10/07 04:38:13;;;;;;;12.10;8.70;;;;;;;3.93;93.04;101952.54;88716;1292;22037;-74
2022/10/07 04:40:19;;;;;;;15.80;8.60;;;;;;;3.91;92.84;101954.24;88499;1304;22088;-74
2022/10/07 04:44:48;;;;;;;10.20;7.70;;;;;;;3.91;93.06;101949.76;87997;1292;1002818;-74
2022/10/07 04:46:55;;;;;;;12.40;8.40;;;;;;;3.91;93.26;101949.23;88735;1289;22707;-73
2022/10/07 04:49:01;;;;;;;15.00;9.40;;;;;;;3.90;93.13;101948.19;88729;1295;22055;-73
2022/10/07 04:51:08;;;;;;;9.60;7.30;;;;;;;3.88;92.93;101950.75;88590;1302;22174;-74
2022/10/07 04:53:15;;;;;;;11.20;8.00;;;;;;;3.88;93.04;101948.34;88735;1284;22662;-74
2022/10/07 04:55:21;;;;;;;10.70;7.10;;;;;;;3.89;93.28;101945.40;88499;1306;22715;-74
2022/10/07 04:57:30;;;;;;;13.00;9.30;;;;;;;3.91;93.43;101942.85;88491;1305;22069;-74
2022/10/07 04:59:36;;;;;;;15.70;8.20;;;;;;;3.91;93.44;101941.48;88451;1307;22100;-73
2022/10/07 05:01:41;;;;;;;9.90;7.30;;;;;;;3.92;93.35;101942.52;88699;1299;22027;-73
2022/10/07 05:03:47;;;;;;;10.60;7.40;;;;;;;3.92;93.42;101944.41;88580;1302;22779;-73
2022/10/07 05:05:54;;;;;;;10.40;6.90;;;;;;;3.93;93.40;101941.33;88488;1306;22069;-73
2022/10/07 05:07:59;;;;;;;11.80;7.30;;;;;;;3.94;93.51;101938.92;88581;1301;22713;-76
2022/10/07 05:10:07;;;;;;;12.60;8.60;;;;;;;3.95;93.86;101938.09;88502;1304;22073;-75
2022/10/07 05:12:13;;;;;;;13.60;7.90;;;;;;;4.00;94.05;101937.45;88710;1299;22713;-74
2022/10/07 05:14:20;;;;;;;11.60;6.30;;;;;;;4.03;94.25;101940.24;88493;1289;317657;-74
2022/10/07 05:16:25;;;;;;;9.80;7.20;;;;;;;4.07;94.49;101939.11;88611;1305;22064;-74
2022/10/07 05:18:38;;;;;;;11.10;6.60;;;;;;;4.13;94.28;101939.36;88700;1293;22046;-74
2022/10/07 05:20:45;;;;;;;10.40;7.20;;;;;;;4.18;94.36;101937.17;88487;1310;22068;-74
2022/10/07 05:22:50;;;;;;;9.30;7.30;;;;;;;4.23;94.58;101939.15;87697;1309;1002185;-74
2022/10/07 05:24:56;;;;;;;9.30;7.00;;;;;;;4.28;95.00;101938.02;88701;1303;22026;-74
2022/10/07 05:27:01;;;;;;;8.20;7.00;;;;;;;4.34;94.88;101939.81;88730;1292;22025;-74
2022/10/07 05:29:07;;;;;;;9.60;6.90;;;;;;;4.39;94.98;101939.70;88730;1304;22128;-74
2022/10/07 05:31:14;;;;;;;9.50;7.10;;;;;;;4.45;94.86;101938.56;88756;1297;22742;-73
2022/10/07 05:33:19;;;;;;;10.90;7.10;;;;;;;4.51;94.91;101936.56;88735;1303;22089;-73
2022/10/07 05:35:25;;;;;;;8.30;7.40;;;;;;;4.59;95.31;101938.73;88719;1294;22199;-73
2022/10/07 05:37:31;;;;;;;16.10;7.90;;;;;;;4.67;95.13;101937.61;88584;1300;22112;-73
2022/10/07 05:39:36;;;;;;;10.10;6.80;;;;;;;4.77;95.25;101940.15;88486;1306;22100;-74
2022/10/07 05:41:42;;;;;;;11.90;9.10;;;;;;;4.98;95.73;101936.91;88496;1304;22065;-74
2022/10/07 05:43:48;;;;;;;9.00;7.60;;;;;;;5.67;98.20;101936.81;88734;1285;22050;-74
2022/10/07 05:46:00;;;;;;;14.00;6.60;;;;;;;6.79;100.00;101933.21;88562;1305;22826;-74
2022/10/07 05:48:06;;;;;;;5.90;5.30;;;;;;;7.87;99.93;101932.58;88721;1286;22052;-74
2022/10/07 05:50:12;;;;;;;6.40;5.30;;;;;;;8.50;98.20;101930.16;88481;1304;22055;-74
2022/10/07 05:52:20;;;;;;;6.50;5.00;;;;;;;8.58;95.20;101929.26;88498;1308;22071;-74
2022/10/07 05:54:25;;;;;;;10.50;6.10;;;;;;;8.50;92.88;101931.21;88500;1306;22079;-74
2022/10/07 05:56:31;;;;;;;11.90;6.90;;;;;;;8.48;92.37;101929.83;88706;1299;22088;-73
2022/10/07 05:58:37;;;;;;;11.50;6.30;;;;;;;8.56;91.39;101931.36;88328;1297;22073;-73
2022/10/07 06:00:52;;;;;;;10.10;6.00;;;;;;;8.79;91.81;101928.80;88702;1300;22023;-73
2022/10/07 06:03:00;;;;;;;11.70;6.10;;;;;;;8.80;91.33;101930.19;88497;1304;22087;-73
2022/10/07 06:05:07;;;;;;;8.20;5.50;;;;;;;8.74;90.38;101933.36;88484;1306;22180;-73
2022/10/07 06:07:12;;;;;;;10.00;5.50;;;;;;;8.65;90.03;101934.79;88486;1304;22177;-74
2022/10/07 06:14:05;;;;;;;7.70;5.30;;;;;;;8.59;90.02;101938.30;88492;1306;22085;-73
2022/10/07 06:16:11;;;;;;;12.20;7.60;;;;;;;8.51;89.84;101941.98;88711;1300;22514;-73
2022/10/07 06:18:17;;;;;;;8.70;6.70;;;;;;;8.46;89.88;101946.02;88497;1306;22054;-73
2022/10/07 06:20:22;;;;;;;9.70;5.90;;;;;;;8.41;89.95;101947.44;88691;1295;22067;-73
2022/10/07 06:22:28;;;;;;;9.60;5.20;;;;;;;8.39;90.05;101950.21;88435;1299;22123;-73
2022/10/07 06:24:34;;;;;;;9.60;5.50;;;;;;;8.36;90.04;101950.73;88623;1292;22618;-73
2022/10/07 06:26:41;;;;;;;8.20;5.40;;;;;;;8.37;90.26;101953.86;88505;1306;22059;-73
2022/10/07 06:28:46;;;;;;;10.20;5.40;;;;;;;8.38;90.45;101951.79;88703;1271;22045;-73
2022/10/07 06:30:52;;;;;;;7.90;4.80;;;;;;;8.40;90.43;101952.12;88710;1292;22031;-73
2022/10/07 06:32:57;;;;;;;9.20;5.50;;;;;;;8.43;90.66;101949.16;88698;1299;22050;-73
2022/10/07 06:35:04;;;;;;;9.20;5.70;;;;;;;8.47;90.63;101950.88;88704;1288;22072;-73
2022/10/07 06:37:09;;;;;;;7.40;5.20;;;;;;;8.51;90.88;101951.90;88500;1288;22064;-73
2022/10/07 06:39:16;;;;;;;14.10;6.60;;;;;;;8.56;91.03;101953.44;88690;1286;22072;-73
2022/10/07 06:41:22;;;;;;;11.40;6.00;;;;;;;8.61;91.24;101952.04;88706;1287;22042;-73
2022/10/07 06:43:28;;;;;;;13.50;6.40;;;;;;;8.67;91.40;101949.75;88482;1306;22805;-73
2022/10/07 06:45:34;;;;;;;8.30;5.00;;;;;;;8.74;91.54;101950.41;88686;1286;22570;-73
2022/10/07 06:47:39;;;;;;;7.00;5.10;;;;;;;8.81;91.53;101951.07;88476;1305;22050;-73
2022/10/07 06:49:45;;;;;;;6.80;5.10;;;;;;;8.88;91.61;101948.94;88684;1293;22038;-73
2022/10/07 06:51:50;;;;;;;11.20;6.00;;;;;;;8.95;91.74;101949.05;88698;1293;22146;-73
2022/10/07 06:53:57;;;;;;;13.40;5.40;;;;;;;9.01;91.59;101952.00;88502;1306;22224;-74
2022/10/07 06:56:03;;;;;;;9.20;5.40;;;;;;;9.10;91.69;101950.71;88689;1299;22035;-74
2022/10/07 06:58:09;;;;;;;9.60;6.40;;;;;;;9.18;91.98;101955.01;88588;1300;22122;-74
2022/10/07 07:00:15;;;;;;;15.80;5.20;;;;;;;9.27;92.01;101953.38;88713;1299;22038;-74
2022/10/07 07:02:23;;;;;;;13.10;5.40;;;;;;;9.37;92.16;101952.78;88501;1306;22622;-74
2022/10/07 07:04:29;;;;;;;9.30;5.40;;;;;;;9.47;92.38;101953.23;88646;1300;22060;-74
2022/10/07 07:06:37;;;;;;;15.20;6.30;;;;;;;9.55;92.24;101950.73;88504;1306;22635;-74
2022/10/07 07:08:44;;;;;;;8.00;5.70;;;;;;;9.64;92.38;101953.08;88731;1299;22029;-74
2022/10/07 07:10:50;;;;;;;14.20;5.70;;;;;;;9.74;92.50;101952.30;88717;1287;22032;-74
2022/10/07 07:12:56;;;;;;;9.70;6.00;;;;;;;9.84;92.60;101951.15;88711;1288;22099;-74
2022/10/07 07:15:01;;;;;;;11.70;5.30;;;;;;;9.95;92.70;101945.83;88472;1299;22080;-74
2022/10/07 07:17:07;;;;;;;12.70;5.80;;;;;;;10.07;92.59;101946.39;88709;1289;22119;-74
2022/10/07 07:19:13;;;;;;;12.40;6.30;;;;;;;10.21;92.63;101944.15;88701;1293;22066;-74
2022/10/07 07:21:19;;;;;;;14.50;5.40;;;;;;;10.35;92.72;101942.80;88482;1306;22545;-74
2022/10/07 07:23:27;;;;;;;8.80;5.60;;;;;;;10.49;92.58;101942.96;88488;1306;22664;-74
2022/10/07 07:25:34;;;;;;;9.90;5.10;;;;;;;10.64;92.59;101943.48;88713;1286;22024;-74
2022/10/07 07:27:40;;;;;;;9.50;4.80;;;;;;;10.79;92.65;101943.27;88478;1306;22645;-74
2022/10/07 07:29:45;;;;;;;9.00;5.70;;;;;;;11.01;93.30;101939.30;88468;1298;22600;-74
2022/10/07 07:31:51;;;;;;;6.50;4.40;;;;;;;11.49;95.64;101938.69;88701;1299;22597;-74
2022/10/07 07:33:59;;;;;;;10.10;4.10;;;;;;;12.19;94.81;101940.45;88674;1299;22031;-74
2022/10/07 07:36:14;;;;;;;10.40;5.10;;;;;;;12.93;95.61;101936.60;88689;1299;22106;-74
2022/10/07 07:38:20;;;;;;;6.90;3.80;;;;;;;13.82;94.74;101931.98;88696;1299;22628;-74
2022/10/07 07:40:26;;;;;;;7.50;3.60;;;;;;;14.69;92.58;101929.72;88722;1299;22133;-74
2022/10/07 07:42:31;;;;;;;10.30;4.70;;;;;;;15.50;89.07;101928.55;88483;1298;22124;-74
2022/10/07 07:44:38;;;;;;;10.00;4.00;;;;;;;16.31;85.91;101929.39;88705;1294;22675;-74
2022/10/07 07:46:47;;;;;;;10.50;4.70;;;;;;;17.14;82.52;101925.14;88710;1287;22478;-74
2022/10/07 07:48:53;;;;;;;11.50;4.20;;;;;;;18.05;78.31;101921.61;88469;1290;22179;-74
2022/10/07 07:50:59;;;;;;;7.70;4.10;;;;;;;18.90;74.93;101918.23;88490;1301;22062;-73
2022/10/07 07:53:05;;;;;;;10.20;3.70;;;;;;;19.73;70.96;101919.62;88516;1306;22054;-75
2022/10/07 07:55:11;;;;;;;12.10;4.20;;;;;;;20.56;66.52;101917.29;88713;1295;22076;-75
2022/10/07 07:57:16;;;;;;;9.20;4.20;;;;;;;21.47;63.51;101914.63;88699;1299;22093;-74
2022/10/07 07:59:22;;;;;;;13.10;4.10;;;;;;;22.32;62.17;101914.44;88493;1306;22052;-74
2022/10/07 08:01:30;;;;;;;11.60;4.00;;;;;;;22.95;57.94;101915.40;88703;1290;22036;-75
2022/10/07 08:03:36;;;;;;;9.70;4.30;;;;;;;23.48;55.00;101912.07;88685;1294;22086;-75
2022/10/07 08:05:42;;;;;;;9.80;4.30;;;;;;;24.00;52.87;101912.17;88729;1285;22085;-75
2022/10/07 08:07:47;;;;;;;11.70;3.80;;;;;;;24.46;51.40;101914.31;88688;1294;22033;-75
2022/10/07 08:09:53;;;;;;;11.00;4.10;;;;;;;24.81;49.27;101907.64;88674;1299;22024;-75
2022/10/07 08:11:59;;;;;;;9.20;3.70;;;;;;;25.09;48.95;101906.80;88693;1299;22513;-75
2022/10/07 08:14:06;;;;;;;11.10;3.90;;;;;;;25.06;48.38;101907.80;88496;1306;22852;-75
2022/10/07 08:16:13;;;;;;;9.30;4.00;;;;;;;24.83;46.49;101908.57;88487;1301;22044;-75
2022/10/07 08:18:19;;;;;;;8.00;4.30;;;;;;;24.48;47.13;101906.48;88459;1304;22068;-75
2022/10/07 08:20:24;;;;;;;8.10;3.10;;;;;;;24.06;47.51;101902.47;88479;1306;22610;-75
2022/10/07 08:22:30;;;;;;;9.60;3.60;;;;;;;23.62;47.98;101902.34;88495;1306;22727;-75
2022/10/07 08:24:36;;;;;;;6.60;2.90;;;;;;;23.19;48.28;101901.16;88694;1298;22057;-75
2022/10/07 08:26:42;;;;;;;6.90;2.50;;;;;;;22.78;48.25;101896.92;88668;1299;22096;-75
2022/10/07 08:28:48;;;;;;;5.70;2.90;;;;;;;22.36;48.63;101898.70;88698;1287;22200;-75
2022/10/07 08:30:54;;;;;;;4.80;2.60;;;;;;;21.95;49.42;101894.83;88619;1299;22103;-76
2022/10/07 08:32:59;;;;;;;7.00;2.90;;;;;;;21.57;48.94;101893.80;88485;1306;22062;-75
2022/10/07 08:35:06;;;;;;;5.70;3.20;;;;;;;21.20;49.26;101892.74;88493;1291;22069;-75
2022/10/07 08:37:11;;;;;;;7.60;2.60;;;;;;;20.93;50.04;101887.76;88710;1287;22526;-75
2022/10/07 08:39:17;;;;;;;6.20;2.30;;;;;;;20.70;50.66;101888.55;88446;1307;22113;-75
2022/10/07 08:41:33;;;;;;;8.20;3.30;;;;;;;20.49;51.44;101885.98;88717;1299;22056;-75
2022/10/07 08:43:42;;;;;;;7.20;3.00;;;;;;;20.29;51.62;101883.50;88697;1286;22090;-74
2022/10/07 08:45:47;;;;;;;12.60;2.60;;;;;;;20.11;51.36;101884.15;88727;1299;22248;-74
2022/10/07 08:47:53;;;;;;;5.70;2.20;;;;;;;19.98;51.86;101881.47;88709;1298;22099;-74
2022/10/07 08:50:05;;;;;;;7.30;2.40;;;;;;;19.97;51.41;101879.04;88640;1299;22229;-74
2022/10/07 08:52:27;;;;;;;9.70;2.30;;;;;;;20.01;51.57;101877.79;88485;1296;22042;-74
2022/10/07 08:54:33;;;;;;;3.70;1.90;;;;;;;20.07;51.78;101872.80;88485;1298;22735;-74
2022/10/07 08:56:39;;;;;;;5.30;2.10;;;;;;;20.17;52.13;101866.48;88707;1298;22042;-75
2022/10/07 08:58:54;;;;;;;4.70;2.00;;;;;;;20.28;51.85;101862.46;88474;1298;22577;-75
2022/10/07 09:01:03;;;;;;;5.90;1.70;;;;;;;20.35;51.11;101862.10;88681;1299;22019;-75
2022/10/07 09:03:15;;;;;;;4.30;1.90;;;;;;;20.43;51.00;101858.81;88698;1285;22053;-75
2022/10/07 09:05:24;;;;;;;4.90;2.00;;;;;;;20.56;50.98;101859.73;88684;1299;22367;-75
2022/10/07 09:07:35;;;;;;;8.50;2.40;;;;;;;20.82;50.28;101857.88;88687;1299;22083;-73
2022/10/07 09:09:44;;;;;;;8.10;2.30;;;;;;;21.21;50.46;101852.58;88713;1292;22041;-73
2022/10/07 09:11:51;;;;;;;3.30;1.50;;;;;;;21.77;49.70;101850.85;88680;1298;22754;-73
2022/10/07 09:13:59;;;;;;;3.70;2.50;;;;;;;22.43;48.00;101850.64;88473;1306;22101;-75
2022/10/07 09:16:06;;;;;;;1.90;1.10;;;;;;;23.08;46.50;101849.89;88691;1287;22591;-74
2022/10/07 09:18:19;;;;;;;3.60;1.00;;;;;;;23.71;43.62;101855.25;88687;1299;22677;-74
2022/10/07 09:20:29;;;;;;;4.80;1.20;;;;;;;24.23;42.20;101845.49;88706;1296;22694;-74
2022/10/07 09:22:37;;;;;;;4.40;1.70;;;;;;;24.64;42.05;101842.86;88704;1299;22077;-75
2022/10/07 09:24:43;;;;;;;3.00;1.20;;;;;;;25.08;41.48;101844.93;88684;1287;22690;-75
2022/10/07 09:26:48;;;;;;;4.50;1.70;;;;;;;25.50;40.43;101844.43;88639;1299;22070;-75
2022/10/07 09:28:54;;;;;;;4.00;1.30;;;;;;;25.81;39.93;101840.19;88706;1299;22817;-75
2022/10/07 09:31:01;;;;;;;6.80;1.60;;;;;;;26.13;38.83;101839.09;88420;1307;22110;-75
2022/10/07 09:33:11;;;;;;;4.50;2.90;;;;;;;26.35;38.21;101833.72;88667;1288;22702;-75
2022/10/07 09:35:21;;;;;;;4.60;1.30;;;;;;;26.55;38.00;101830.48;88636;1289;22079;-76
2022/10/07 09:37:27;;;;;;;2.80;1.40;;;;;;;26.74;37.03;101822.63;88496;1299;22053;-75
2022/10/07 09:39:32;;;;;;;2.40;1.30;;;;;;;26.88;37.40;101815.90;88684;1283;22131;-75
2022/10/07 09:41:38;;;;;;;6.30;1.00;;;;;;;26.96;36.12;101817.42;88688;1299;22649;-75
2022/10/07 09:43:56;;;;;;;14.60;1.30;;;;;;;26.99;36.18;101815.19;88700;1292;22032;-75
2022/10/07 09:46:02;;;;;;;4.40;1.30;;;;;;;26.94;36.18;101812.92;88489;1306;22045;-75
2022/10/07 09:48:18;;;;;;;2.90;1.20;;;;;;;26.74;36.16;101809.79;88711;1291;22045;-75
2022/10/07 09:50:39;;;;;;;4.40;1.00;;;;;;;26.45;35.72;101813.05;88474;1306;22082;-75
2022/10/07 09:52:45;;;;;;;1.10;0.70;;;;;;;25.95;35.79;101806.56;88594;1301;22719;-75
2022/10/07 09:54:52;;;;;;;3.60;1.00;;;;;;;25.46;36.23;101803.45;88569;1290;22123;-75
2022/10/07 09:56:58;;;;;;;7.10;1.20;;;;;;;24.96;35.87;101804.97;88703;1286;22033;-75
2022/10/07 09:59:21;;;;;;;5.60;1.10;;;;;;;24.43;36.97;101801.25;88478;1305;22105;-76
2022/10/07 10:01:27;;;;;;;5.40;1.10;;;;;;;23.87;37.47;101801.87;88436;1301;22088;-76